sensor_id;sensor_type;location;lat;lon;timestamp;P1;durP1;ratioP1;P2;durP2;ratioP2
78561;SDS011;68963;52.138;5.446;2023-10-13T00:01:22;22.15;;;9.20;;
78561;SDS011;68963;52.138;5.446;2023-10-13T00:03:49;24.08;;;9.55;;
78561;SDS011;68963;52.138;5.446;2023-10-13T00:06:20;22.05;;;8.85;;
78561;SDS011;68963;52.138;5.446;2023-10-13T00:08:47;21.00;;;9.18;;
78561;SDS011;68963;52.138;5.446;2023-10-13T00:11:14;21.70;;;9.18;;
78561;SDS011;68963;52.138;5.446;2023-10-13T00:13:41;20.30;;;8.88;;
78561;SDS011;68963;52.138;5.446;2023-10-13T00:16:09;21.55;;;9.23;;
78561;SDS011;68963;52.138;5.446;2023-10-13T00:18:42;23.30;;;9.38;;
78561;SDS011;68963;52.138;5.446;2023-10-13T00:21:10;23.80;;;9.52;;
78561;SDS011;68963;52.138;5.446;2023-10-13T00:23:40;22.65;;;9.25;;
78561;SDS011;68963;52.138;5.446;2023-10-13T00:26:31;20.33;;;8.73;;
78561;SDS011;68963;52.138;5.446;2023-10-13T00:29:02;20.48;;;9.18;;
78561;SDS011;68963;52.138;5.446;2023-10-13T00:31:39;23.48;;;8.98;;
78561;SDS011;68963;52.138;5.446;2023-10-13T00:34:10;20.38;;;8.70;;
78561;SDS011;68963;52.138;5.446;2023-10-13T00:36:51;20.58;;;8.95;;
78561;SDS011;68963;52.138;5.446;2023-10-13T00:39:38;19.63;;;8.30;;
78561;SDS011;68963;52.138;5.446;2023-10-13T00:42:14;22.63;;;9.10;;
78561;SDS011;68963;52.138;5.446;2023-10-13T00:44:52;20.90;;;8.68;;
78561;SDS011;68963;52.138;5.446;2023-10-13T00:47:21;18.73;;;7.88;;
78561;SDS011;68963;52.138;5.446;2023-10-13T00:50:04;23.10;;;8.48;;
78561;SDS011;68963;52.138;5.446;2023-10-13T00:52:31;23.35;;;8.77;;
78561;SDS011;68963;52.138;5.446;2023-10-13T00:55:02;17.80;;;8.18;;
78561;SDS011;68963;52.138;5.446;2023-10-13T00:57:31;18.73;;;8.48;;
78561;SDS011;68963;52.138;5.446;2023-10-13T00:59:58;18.20;;;8.80;;
78561;SDS011;68963;52.138;5.446;2023-10-13T01:05:04;19.67;;;8.18;;
78561;SDS011;68963;52.138;5.446;2023-10-13T01:07:36;22.30;;;8.45;;
78561;SDS011;68963;52.138;5.446;2023-10-13T01:10:04;20.27;;;7.97;;
78561;SDS011;68963;52.138;5.446;2023-10-13T01:12:31;22.00;;;8.93;;
78561;SDS011;68963;52.138;5.446;2023-10-13T01:14:57;24.60;;;8.85;;
78561;SDS011;68963;52.138;5.446;2023-10-13T01:17:25;20.23;;;9.52;;
78561;SDS011;68963;52.138;5.446;2023-10-13T01:19:58;23.13;;;9.63;;
78561;SDS011;68963;52.138;5.446;2023-10-13T01:22:25;19.50;;;9.68;;
78561;SDS011;68963;52.138;5.446;2023-10-13T01:24:55;20.20;;;9.30;;
78561;SDS011;68963;52.138;5.446;2023-10-13T01:27:31;24.75;;;10.60;;
78561;SDS011;68963;52.138;5.446;2023-10-13T01:30:04;22.67;;;10.43;;
78561;SDS011;68963;52.138;5.446;2023-10-13T01:32:36;27.35;;;10.85;;
78561;SDS011;68963;52.138;5.446;2023-10-13T01:35:07;22.65;;;10.73;;
78561;SDS011;68963;52.138;5.446;2023-10-13T01:37:34;24.55;;;10.77;;
78561;SDS011;68963;52.138;5.446;2023-10-13T01:40:01;24.67;;;10.52;;
78561;SDS011;68963;52.138;5.446;2023-10-13T01:42:28;24.30;;;10.65;;
78561;SDS011;68963;52.138;5.446;2023-10-13T01:44:57;20.70;;;10.43;;
78561;SDS011;68963;52.138;5.446;2023-10-13T01:47:32;26.65;;;10.77;;
78561;SDS011;68963;52.138;5.446;2023-10-13T01:50:02;20.83;;;10.23;;
78561;SDS011;68963;52.138;5.446;2023-10-13T01:52:40;23.20;;;10.27;;
78561;SDS011;68963;52.138;5.446;2023-10-13T01:55:10;25.92;;;11.38;;
78561;SDS011;68963;52.138;5.446;2023-10-13T01:57:38;24.73;;;11.63;;
78561;SDS011;68963;52.138;5.446;2023-10-13T02:00:06;24.90;;;11.52;;
78561;SDS011;68963;52.138;5.446;2023-10-13T02:02:45;23.92;;;11.05;;
78561;SDS011;68963;52.138;5.446;2023-10-13T02:05:16;23.48;;;10.25;;
78561;SDS011;68963;52.138;5.446;2023-10-13T02:07:43;20.77;;;10.00;;
78561;SDS011;68963;52.138;5.446;2023-10-13T02:10:13;22.85;;;10.00;;
78561;SDS011;68963;52.138;5.446;2023-10-13T02:12:39;23.88;;;9.73;;
78561;SDS011;68963;52.138;5.446;2023-10-13T02:15:10;18.85;;;9.20;;
78561;SDS011;68963;52.138;5.446;2023-10-13T02:17:47;19.38;;;9.25;;
78561;SDS011;68963;52.138;5.446;2023-10-13T02:20:18;27.50;;;10.60;;
78561;SDS011;68963;52.138;5.446;2023-10-13T02:22:48;21.70;;;8.85;;
78561;SDS011;68963;52.138;5.446;2023-10-13T02:25:16;18.40;;;9.35;;
78561;SDS011;68963;52.138;5.446;2023-10-13T02:28:01;20.70;;;10.15;;
78561;SDS011;68963;52.138;5.446;2023-10-13T02:30:28;21.70;;;9.60;;
78561;SDS011;68963;52.138;5.446;2023-10-13T02:32:55;18.08;;;9.60;;
78561;SDS011;68963;52.138;5.446;2023-10-13T02:37:57;20.38;;;8.80;;
78561;SDS011;68963;52.138;5.446;2023-10-13T02:40:34;18.83;;;8.65;;
78561;SDS011;68963;52.138;5.446;2023-10-13T02:43:02;16.95;;;8.30;;
78561;SDS011;68963;52.138;5.446;2023-10-13T02:45:31;19.88;;;8.40;;
78561;SDS011;68963;52.138;5.446;2023-10-13T02:47:59;18.23;;;8.77;;
78561;SDS011;68963;52.138;5.446;2023-10-13T02:50:44;20.33;;;8.52;;
78561;SDS011;68963;52.138;5.446;2023-10-13T02:53:12;19.13;;;8.13;;
78561;SDS011;68963;52.138;5.446;2023-10-13T02:55:59;16.15;;;8.00;;
78561;SDS011;68963;52.138;5.446;2023-10-13T02:58:32;16.98;;;8.25;;
78561;SDS011;68963;52.138;5.446;2023-10-13T03:01:08;15.15;;;7.82;;
78561;SDS011;68963;52.138;5.446;2023-10-13T03:03:45;20.17;;;7.97;;
78561;SDS011;68963;52.138;5.446;2023-10-13T03:06:21;19.63;;;8.63;;
78561;SDS011;68963;52.138;5.446;2023-10-13T03:09:02;19.20;;;7.93;;
78561;SDS011;68963;52.138;5.446;2023-10-13T03:11:45;19.73;;;8.20;;
78561;SDS011;68963;52.138;5.446;2023-10-13T03:14:16;22.17;;;8.68;;
78561;SDS011;68963;52.138;5.446;2023-10-13T03:16:52;18.33;;;8.75;;
78561;SDS011;68963;52.138;5.446;2023-10-13T03:19:20;18.65;;;8.35;;
78561;SDS011;68963;52.138;5.446;2023-10-13T03:21:47;19.88;;;7.85;;
78561;SDS011;68963;52.138;5.446;2023-10-13T03:24:30;19.83;;;7.85;;
78561;SDS011;68963;52.138;5.446;2023-10-13T03:27:03;18.85;;;8.13;;
78561;SDS011;68963;52.138;5.446;2023-10-13T03:29:36;20.45;;;7.60;;
78561;SDS011;68963;52.138;5.446;2023-10-13T03:32:05;19.50;;;7.88;;
78561;SDS011;68963;52.138;5.446;2023-10-13T03:34:47;17.25;;;7.65;;
78561;SDS011;68963;52.138;5.446;2023-10-13T03:37:33;16.92;;;7.22;;
78561;SDS011;68963;52.138;5.446;2023-10-13T03:40:10;18.52;;;7.30;;
78561;SDS011;68963;52.138;5.446;2023-10-13T03:42:48;20.60;;;6.95;;
78561;SDS011;68963;52.138;5.446;2023-10-13T03:45:32;24.15;;;7.30;;
78561;SDS011;68963;52.138;5.446;2023-10-13T03:48:11;15.10;;;6.88;;
78561;SDS011;68963;52.138;5.446;2023-10-13T03:50:56;14.38;;;6.47;;
78561;SDS011;68963;52.138;5.446;2023-10-13T03:53:33;23.35;;;6.85;;
78561;SDS011;68963;52.138;5.446;2023-10-13T03:56:01;14.70;;;6.30;;
78561;SDS011;68963;52.138;5.446;2023-10-13T03:58:39;15.68;;;6.35;;
78561;SDS011;68963;52.138;5.446;2023-10-13T04:01:12;14.93;;;7.20;;
78561;SDS011;68963;52.138;5.446;2023-10-13T04:03:43;17.35;;;6.35;;
78561;SDS011;68963;52.138;5.446;2023-10-13T04:06:40;15.90;;;6.20;;
78561;SDS011;68963;52.138;5.446;2023-10-13T04:09:17;16.80;;;6.63;;
78561;SDS011;68963;52.138;5.446;2023-10-13T04:14:30;18.67;;;6.55;;
78561;SDS011;68963;52.138;5.446;2023-10-13T04:17:19;16.40;;;6.50;;
78561;SDS011;68963;52.138;5.446;2023-10-13T04:19:51;17.23;;;6.43;;
78561;SDS011;68963;52.138;5.446;2023-10-13T04:22:34;15.40;;;6.10;;
78561;SDS011;68963;52.138;5.446;2023-10-13T04:25:23;14.82;;;6.55;;
78561;SDS011;68963;52.138;5.446;2023-10-13T04:28:10;15.07;;;6.38;;
78561;SDS011;68963;52.138;5.446;2023-10-13T04:33:14;16.02;;;6.70;;
78561;SDS011;68963;52.138;5.446;2023-10-13T04:36:09;14.02;;;6.43;;
78561;SDS011;68963;52.138;5.446;2023-10-13T04:38:41;14.55;;;6.15;;
78561;SDS011;68963;52.138;5.446;2023-10-13T04:44:14;17.92;;;6.82;;
78561;SDS011;68963;52.138;5.446;2023-10-13T04:46:58;12.50;;;5.82;;
78561;SDS011;68963;52.138;5.446;2023-10-13T04:49:28;14.55;;;6.07;;
78561;SDS011;68963;52.138;5.446;2023-10-13T04:52:17;13.15;;;5.80;;
78561;SDS011;68963;52.138;5.446;2023-10-13T04:55:05;12.90;;;5.60;;
78561;SDS011;68963;52.138;5.446;2023-10-13T04:57:51;13.95;;;6.25;;
78561;SDS011;68963;52.138;5.446;2023-10-13T05:00:26;12.20;;;5.30;;
78561;SDS011;68963;52.138;5.446;2023-10-13T05:03:11;12.00;;;5.68;;
78561;SDS011;68963;52.138;5.446;2023-10-13T05:08:39;11.32;;;5.03;;
78561;SDS011;68963;52.138;5.446;2023-10-13T05:11:25;10.27;;;4.70;;
78561;SDS011;68963;52.138;5.446;2023-10-13T05:14:10;12.80;;;4.93;;
78561;SDS011;68963;52.138;5.446;2023-10-13T05:16:55;9.45;;;5.00;;
78561;SDS011;68963;52.138;5.446;2023-10-13T05:19:40;10.38;;;5.13;;
78561;SDS011;68963;52.138;5.446;2023-10-13T05:22:25;9.80;;;5.32;;
78561;SDS011;68963;52.138;5.446;2023-10-13T05:25:10;10.63;;;5.57;;
78561;SDS011;68963;52.138;5.446;2023-10-13T05:27:55;11.88;;;5.10;;
78561;SDS011;68963;52.138;5.446;2023-10-13T05:30:58;11.15;;;6.10;;
78561;SDS011;68963;52.138;5.446;2023-10-13T05:33:44;15.85;;;6.93;;
78561;SDS011;68963;52.138;5.446;2023-10-13T05:36:29;12.00;;;6.30;;
78561;SDS011;68963;52.138;5.446;2023-10-13T05:39:14;12.65;;;6.38;;
78561;SDS011;68963;52.138;5.446;2023-10-13T05:41:59;13.85;;;6.35;;
78561;SDS011;68963;52.138;5.446;2023-10-13T05:44:44;12.25;;;6.10;;
78561;SDS011;68963;52.138;5.446;2023-10-13T05:47:23;13.80;;;6.50;;
78561;SDS011;68963;52.138;5.446;2023-10-13T05:50:05;12.85;;;6.20;;
78561;SDS011;68963;52.138;5.446;2023-10-13T05:52:47;9.88;;;5.60;;
78561;SDS011;68963;52.138;5.446;2023-10-13T05:55:24;13.23;;;5.18;;
78561;SDS011;68963;52.138;5.446;2023-10-13T05:58:11;14.75;;;4.90;;
78561;SDS011;68963;52.138;5.446;2023-10-13T06:00:57;14.50;;;4.95;;
78561;SDS011;68963;52.138;5.446;2023-10-13T06:03:42;15.05;;;5.05;;
78561;SDS011;68963;52.138;5.446;2023-10-13T06:06:28;12.52;;;4.72;;
78561;SDS011;68963;52.138;5.446;2023-10-13T06:09:13;11.98;;;5.00;;
78561;SDS011;68963;52.138;5.446;2023-10-13T06:11:58;14.80;;;4.72;;
78561;SDS011;68963;52.138;5.446;2023-10-13T06:14:46;13.40;;;5.63;;
78561;SDS011;68963;52.138;5.446;2023-10-13T06:17:32;13.77;;;5.07;;
78561;SDS011;68963;52.138;5.446;2023-10-13T06:20:17;13.45;;;5.22;;
78561;SDS011;68963;52.138;5.446;2023-10-13T06:23:02;13.25;;;5.15;;
78561;SDS011;68963;52.138;5.446;2023-10-13T06:25:50;12.35;;;5.43;;
78561;SDS011;68963;52.138;5.446;2023-10-13T06:28:36;14.40;;;5.10;;
78561;SDS011;68963;52.138;5.446;2023-10-13T06:31:10;13.73;;;5.50;;
78561;SDS011;68963;52.138;5.446;2023-10-13T06:33:52;11.90;;;5.32;;
78561;SDS011;68963;52.138;5.446;2023-10-13T06:36:22;13.35;;;5.60;;
78561;SDS011;68963;52.138;5.446;2023-10-13T06:38:49;12.35;;;5.50;;
78561;SDS011;68963;52.138;5.446;2023-10-13T06:41:22;17.20;;;6.10;;
78561;SDS011;68963;52.138;5.446;2023-10-13T06:43:57;17.25;;;5.40;;
78561;SDS011;68963;52.138;5.446;2023-10-13T06:46:27;11.80;;;6.35;;
78561;SDS011;68963;52.138;5.446;2023-10-13T06:48:55;14.27;;;6.50;;
78561;SDS011;68963;52.138;5.446;2023-10-13T06:51:25;13.63;;;6.20;;
78561;SDS011;68963;52.138;5.446;2023-10-13T06:53:57;16.38;;;6.72;;
78561;SDS011;68963;52.138;5.446;2023-10-13T06:56:24;14.80;;;7.18;;
78561;SDS011;68963;52.138;5.446;2023-10-13T06:58:54;14.48;;;6.32;;
78561;SDS011;68963;52.138;5.446;2023-10-13T07:01:26;14.18;;;7.10;;
78561;SDS011;68963;52.138;5.446;2023-10-13T07:03:54;15.35;;;7.15;;
78561;SDS011;68963;52.138;5.446;2023-10-13T07:06:27;17.15;;;7.60;;
78561;SDS011;68963;52.138;5.446;2023-10-13T07:08:54;16.20;;;8.25;;
78561;SDS011;68963;52.138;5.446;2023-10-13T07:11:25;13.48;;;7.82;;
78561;SDS011;68963;52.138;5.446;2023-10-13T07:14:02;15.77;;;7.72;;
78561;SDS011;68963;52.138;5.446;2023-10-13T07:16:43;14.77;;;7.85;;
78561;SDS011;68963;52.138;5.446;2023-10-13T07:19:25;18.23;;;8.48;;
78561;SDS011;68963;52.138;5.446;2023-10-13T07:21:55;15.05;;;8.50;;
78561;SDS011;68963;52.138;5.446;2023-10-13T07:24:26;18.27;;;8.90;;
78561;SDS011;68963;52.138;5.446;2023-10-13T07:27:00;15.80;;;8.05;;
78561;SDS011;68963;52.138;5.446;2023-10-13T07:29:32;15.02;;;7.57;;
78561;SDS011;68963;52.138;5.446;2023-10-13T07:32:02;19.38;;;8.05;;
78561;SDS011;68963;52.138;5.446;2023-10-13T07:34:29;14.93;;;7.55;;
78561;SDS011;68963;52.138;5.446;2023-10-13T07:36:59;14.20;;;7.28;;
78561;SDS011;68963;52.138;5.446;2023-10-13T07:39:30;13.93;;;7.13;;
78561;SDS011;68963;52.138;5.446;2023-10-13T07:42:01;13.50;;;6.53;;
78561;SDS011;68963;52.138;5.446;2023-10-13T07:44:32;13.27;;;6.60;;
78561;SDS011;68963;52.138;5.446;2023-10-13T07:47:00;15.43;;;6.63;;
78561;SDS011;68963;52.138;5.446;2023-10-13T07:49:35;14.15;;;6.28;;
78561;SDS011;68963;52.138;5.446;2023-10-13T07:52:10;12.30;;;6.28;;
78561;SDS011;68963;52.138;5.446;2023-10-13T07:54:50;13.30;;;5.82;;
78561;SDS011;68963;52.138;5.446;2023-10-13T07:57:38;13.05;;;5.93;;
78561;SDS011;68963;52.138;5.446;2023-10-13T08:00:20;12.32;;;5.45;;
78561;SDS011;68963;52.138;5.446;2023-10-13T08:03:00;16.77;;;5.53;;
78561;SDS011;68963;52.138;5.446;2023-10-13T08:05:36;16.40;;;5.32;;
78561;SDS011;68963;52.138;5.446;2023-10-13T08:08:21;16.42;;;5.82;;
78561;SDS011;68963;52.138;5.446;2023-10-13T08:10:52;11.52;;;5.90;;
78561;SDS011;68963;52.138;5.446;2023-10-13T08:13:26;12.55;;;5.40;;
78561;SDS011;68963;52.138;5.446;2023-10-13T08:15:53;13.90;;;5.95;;
78561;SDS011;68963;52.138;5.446;2023-10-13T08:18:20;13.25;;;5.57;;
78561;SDS011;68963;52.138;5.446;2023-10-13T08:20:57;12.85;;;5.32;;
78561;SDS011;68963;52.138;5.446;2023-10-13T08:23:29;13.32;;;5.25;;
78561;SDS011;68963;52.138;5.446;2023-10-13T08:26:15;12.50;;;5.50;;
78561;SDS011;68963;52.138;5.446;2023-10-13T08:29:00;13.48;;;4.95;;
78561;SDS011;68963;52.138;5.446;2023-10-13T08:31:46;12.02;;;5.82;;
78561;SDS011;68963;52.138;5.446;2023-10-13T08:34:36;13.45;;;5.03;;
78561;SDS011;68963;52.138;5.446;2023-10-13T08:37:12;15.18;;;4.97;;
78561;SDS011;68963;52.138;5.446;2023-10-13T08:39:48;15.65;;;5.13;;
78561;SDS011;68963;52.138;5.446;2023-10-13T08:42:35;11.95;;;4.60;;
78561;SDS011;68963;52.138;5.446;2023-10-13T08:47:35;11.82;;;4.80;;
78561;SDS011;68963;52.138;5.446;2023-10-13T08:50:03;12.48;;;4.97;;
78561;SDS011;68963;52.138;5.446;2023-10-13T08:52:59;12.88;;;4.70;;
78561;SDS011;68963;52.138;5.446;2023-10-13T08:55:35;9.80;;;4.93;;
78561;SDS011;68963;52.138;5.446;2023-10-13T08:58:15;13.52;;;4.93;;
78561;SDS011;68963;52.138;5.446;2023-10-13T09:00:46;14.13;;;5.05;;
78561;SDS011;68963;52.138;5.446;2023-10-13T09:03:40;14.40;;;5.00;;
78561;SDS011;68963;52.138;5.446;2023-10-13T09:06:10;14.65;;;5.25;;
78561;SDS011;68963;52.138;5.446;2023-10-13T09:08:41;11.90;;;4.78;;
78561;SDS011;68963;52.138;5.446;2023-10-13T09:11:36;12.52;;;4.82;;
78561;SDS011;68963;52.138;5.446;2023-10-13T09:14:16;13.07;;;4.97;;
78561;SDS011;68963;52.138;5.446;2023-10-13T09:17:01;14.75;;;4.60;;
78561;SDS011;68963;52.138;5.446;2023-10-13T09:19:52;14.18;;;4.80;;
78561;SDS011;68963;52.138;5.446;2023-10-13T09:22:26;16.17;;;5.22;;
78561;SDS011;68963;52.138;5.446;2023-10-13T09:25:03;16.60;;;5.28;;
78561;SDS011;68963;52.138;5.446;2023-10-13T09:27:39;16.27;;;5.20;;
78561;SDS011;68963;52.138;5.446;2023-10-13T09:30:06;15.30;;;4.88;;
78561;SDS011;68963;52.138;5.446;2023-10-13T09:32:36;13.25;;;4.75;;
78561;SDS011;68963;52.138;5.446;2023-10-13T09:35:16;14.60;;;5.05;;
78561;SDS011;68963;52.138;5.446;2023-10-13T09:37:45;15.80;;;5.15;;
78561;SDS011;68963;52.138;5.446;2023-10-13T09:40:16;13.93;;;5.00;;
78561;SDS011;68963;52.138;5.446;2023-10-13T09:43:02;14.52;;;5.40;;
78561;SDS011;68963;52.138;5.446;2023-10-13T09:45:34;16.52;;;5.53;;
78561;SDS011;68963;52.138;5.446;2023-10-13T09:48:20;17.70;;;5.15;;
78561;SDS011;68963;52.138;5.446;2023-10-13T09:50:55;14.45;;;5.68;;
78561;SDS011;68963;52.138;5.446;2023-10-13T09:53:25;14.95;;;5.82;;
78561;SDS011;68963;52.138;5.446;2023-10-13T09:56:03;16.75;;;5.07;;
78561;SDS011;68963;52.138;5.446;2023-10-13T09:58:42;19.92;;;6.30;;
78561;SDS011;68963;52.138;5.446;2023-10-13T10:01:19;13.10;;;5.10;;
78561;SDS011;68963;52.138;5.446;2023-10-13T10:04:07;14.30;;;5.03;;
78561;SDS011;68963;52.138;5.446;2023-10-13T10:06:36;15.82;;;5.53;;
78561;SDS011;68963;52.138;5.446;2023-10-13T10:09:07;12.57;;;4.85;;
78561;SDS011;68963;52.138;5.446;2023-10-13T10:22:24;13.73;;;4.82;;
78561;SDS011;68963;52.138;5.446;2023-10-13T10:25:00;13.77;;;4.90;;
78561;SDS011;68963;52.138;5.446;2023-10-13T10:27:29;16.33;;;5.43;;
78561;SDS011;68963;52.138;5.446;2023-10-13T10:29:58;16.00;;;5.40;;
78561;SDS011;68963;52.138;5.446;2023-10-13T10:32:37;13.38;;;5.45;;
78561;SDS011;68963;52.138;5.446;2023-10-13T10:35:08;14.30;;;5.03;;
78561;SDS011;68963;52.138;5.446;2023-10-13T10:37:41;14.05;;;5.68;;
78561;SDS011;68963;52.138;5.446;2023-10-13T10:40:18;14.35;;;5.45;;
78561;SDS011;68963;52.138;5.446;2023-10-13T10:43:08;13.15;;;5.00;;
78561;SDS011;68963;52.138;5.446;2023-10-13T10:45:54;15.82;;;5.25;;
78561;SDS011;68963;52.138;5.446;2023-10-13T10:48:27;12.90;;;4.93;;
78561;SDS011;68963;52.138;5.446;2023-10-13T10:51:01;15.30;;;5.20;;
78561;SDS011;68963;52.138;5.446;2023-10-13T10:53:33;13.43;;;5.25;;
78561;SDS011;68963;52.138;5.446;2023-10-13T10:56:10;14.40;;;4.95;;
78561;SDS011;68963;52.138;5.446;2023-10-13T10:59:00;12.73;;;5.50;;
78561;SDS011;68963;52.138;5.446;2023-10-13T11:01:27;14.88;;;5.50;;
78561;SDS011;68963;52.138;5.446;2023-10-13T11:04:05;12.32;;;5.30;;
78561;SDS011;68963;52.138;5.446;2023-10-13T11:06:52;18.05;;;5.70;;
78561;SDS011;68963;52.138;5.446;2023-10-13T11:11:55;14.70;;;5.65;;
78561;SDS011;68963;52.138;5.446;2023-10-13T11:14:24;13.73;;;5.00;;
78561;SDS011;68963;52.138;5.446;2023-10-13T11:16:55;13.52;;;5.53;;
78561;SDS011;68963;52.138;5.446;2023-10-13T11:19:33;18.10;;;6.05;;
78561;SDS011;68963;52.138;5.446;2023-10-13T11:22:10;13.50;;;5.32;;
78561;SDS011;68963;52.138;5.446;2023-10-13T11:25:03;20.50;;;5.80;;
78561;SDS011;68963;52.138;5.446;2023-10-13T11:27:38;15.50;;;5.28;;
78561;SDS011;68963;52.138;5.446;2023-10-13T11:30:18;11.77;;;5.22;;
78561;SDS011;68963;52.138;5.446;2023-10-13T11:32:58;14.27;;;5.00;;
78561;SDS011;68963;52.138;5.446;2023-10-13T11:35:26;15.07;;;6.07;;
78561;SDS011;68963;52.138;5.446;2023-10-13T11:38:13;16.15;;;5.32;;
78561;SDS011;68963;52.138;5.446;2023-10-13T11:40:40;17.48;;;5.30;;
78561;SDS011;68963;52.138;5.446;2023-10-13T11:43:27;16.42;;;5.38;;
78561;SDS011;68963;52.138;5.446;2023-10-13T11:45:53;14.00;;;5.35;;
78561;SDS011;68963;52.138;5.446;2023-10-13T11:48:36;12.35;;;5.53;;
78561;SDS011;68963;52.138;5.446;2023-10-13T11:51:03;13.00;;;5.40;;
78561;SDS011;68963;52.138;5.446;2023-10-13T11:53:34;15.70;;;5.45;;
78561;SDS011;68963;52.138;5.446;2023-10-13T11:56:04;16.48;;;5.65;;
78561;SDS011;68963;52.138;5.446;2023-10-13T11:58:38;15.32;;;5.45;;
78561;SDS011;68963;52.138;5.446;2023-10-13T12:01:05;13.85;;;5.50;;
78561;SDS011;68963;52.138;5.446;2023-10-13T12:03:38;18.85;;;5.80;;
78561;SDS011;68963;52.138;5.446;2023-10-13T12:06:27;20.25;;;5.75;;
78561;SDS011;68963;52.138;5.446;2023-10-13T12:09:13;18.25;;;5.65;;
78561;SDS011;68963;52.138;5.446;2023-10-13T12:11:46;13.52;;;5.60;;
78561;SDS011;68963;52.138;5.446;2023-10-13T12:14:14;17.60;;;5.75;;
78561;SDS011;68963;52.138;5.446;2023-10-13T12:17:04;16.20;;;5.65;;
78561;SDS011;68963;52.138;5.446;2023-10-13T12:19:36;18.65;;;6.00;;
78561;SDS011;68963;52.138;5.446;2023-10-13T12:22:05;22.23;;;6.22;;
78561;SDS011;68963;52.138;5.446;2023-10-13T12:24:35;16.63;;;6.05;;
78561;SDS011;68963;52.138;5.446;2023-10-13T12:27:02;15.85;;;6.50;;
78561;SDS011;68963;52.138;5.446;2023-10-13T12:29:29;14.45;;;6.20;;
78561;SDS011;68963;52.138;5.446;2023-10-13T12:31:55;16.15;;;5.60;;
78561;SDS011;68963;52.138;5.446;2023-10-13T12:37:21;18.38;;;6.70;;
78561;SDS011;68963;52.138;5.446;2023-10-13T12:40:06;14.63;;;5.88;;
78561;SDS011;68963;52.138;5.446;2023-10-13T12:42:53;14.30;;;5.45;;
78561;SDS011;68963;52.138;5.446;2023-10-13T12:45:39;13.98;;;5.55;;
78561;SDS011;68963;52.138;5.446;2023-10-13T12:48:25;13.15;;;5.10;;
78561;SDS011;68963;52.138;5.446;2023-10-13T12:51:11;16.48;;;5.72;;
78561;SDS011;68963;52.138;5.446;2023-10-13T12:53:48;16.17;;;5.68;;
78561;SDS011;68963;52.138;5.446;2023-10-13T12:56:15;16.40;;;6.00;;
78561;SDS011;68963;52.138;5.446;2023-10-13T12:58:43;14.88;;;6.00;;
78561;SDS011;68963;52.138;5.446;2023-10-13T13:01:19;18.85;;;5.90;;
78561;SDS011;68963;52.138;5.446;2023-10-13T13:03:47;17.15;;;5.80;;
78561;SDS011;68963;52.138;5.446;2023-10-13T13:06:18;18.48;;;5.70;;
78561;SDS011;68963;52.138;5.446;2023-10-13T13:08:54;18.33;;;5.65;;
78561;SDS011;68963;52.138;5.446;2023-10-13T13:11:22;16.98;;;5.88;;
78561;SDS011;68963;52.138;5.446;2023-10-13T13:13:52;17.05;;;6.20;;
78561;SDS011;68963;52.138;5.446;2023-10-13T13:16:19;17.17;;;6.40;;
78561;SDS011;68963;52.138;5.446;2023-10-13T13:18:50;13.57;;;5.55;;
78561;SDS011;68963;52.138;5.446;2023-10-13T13:21:17;17.90;;;6.22;;
78561;SDS011;68963;52.138;5.446;2023-10-13T13:23:49;20.77;;;6.35;;
78561;SDS011;68963;52.138;5.446;2023-10-13T13:26:16;14.65;;;5.70;;
78561;SDS011;68963;52.138;5.446;2023-10-13T13:28:44;20.83;;;6.53;;
78561;SDS011;68963;52.138;5.446;2023-10-13T13:31:11;17.10;;;6.20;;
78561;SDS011;68963;52.138;5.446;2023-10-13T13:33:41;16.38;;;6.95;;
78561;SDS011;68963;52.138;5.446;2023-10-13T13:36:10;17.80;;;6.22;;
78561;SDS011;68963;52.138;5.446;2023-10-13T13:38:43;15.25;;;5.82;;
78561;SDS011;68963;52.138;5.446;2023-10-13T13:41:15;15.60;;;5.90;;
78561;SDS011;68963;52.138;5.446;2023-10-13T13:43:46;18.70;;;6.38;;
78561;SDS011;68963;52.138;5.446;2023-10-13T13:46:22;15.45;;;5.70;;
78561;SDS011;68963;52.138;5.446;2023-10-13T13:49:16;18.75;;;6.15;;
78561;SDS011;68963;52.138;5.446;2023-10-13T13:51:46;19.17;;;6.55;;
78561;SDS011;68963;52.138;5.446;2023-10-13T13:54:21;16.80;;;6.30;;
78561;SDS011;68963;52.138;5.446;2023-10-13T13:56:48;21.02;;;6.57;;
78561;SDS011;68963;52.138;5.446;2023-10-13T13:59:16;18.20;;;6.68;;
78561;SDS011;68963;52.138;5.446;2023-10-13T14:01:46;18.80;;;7.25;;
78561;SDS011;68963;52.138;5.446;2023-10-13T14:04:13;17.42;;;6.70;;
78561;SDS011;68963;52.138;5.446;2023-10-13T14:06:44;16.52;;;6.38;;
78561;SDS011;68963;52.138;5.446;2023-10-13T14:09:11;17.48;;;6.20;;
78561;SDS011;68963;52.138;5.446;2023-10-13T14:11:42;19.38;;;6.32;;
78561;SDS011;68963;52.138;5.446;2023-10-13T14:14:31;20.92;;;6.55;;
78561;SDS011;68963;52.138;5.446;2023-10-13T14:17:00;13.35;;;5.68;;
78561;SDS011;68963;52.138;5.446;2023-10-13T14:19:34;15.27;;;5.78;;
78561;SDS011;68963;52.138;5.446;2023-10-13T14:22:01;17.77;;;5.90;;
78561;SDS011;68963;52.138;5.446;2023-10-13T14:24:34;16.42;;;6.65;;
78561;SDS011;68963;52.138;5.446;2023-10-13T14:29:35;16.60;;;5.82;;
78561;SDS011;68963;52.138;5.446;2023-10-13T14:32:12;16.05;;;6.43;;
78561;SDS011;68963;52.138;5.446;2023-10-13T14:34:42;20.00;;;7.00;;
78561;SDS011;68963;52.138;5.446;2023-10-13T14:37:10;15.30;;;6.13;;
78561;SDS011;68963;52.138;5.446;2023-10-13T14:39:40;17.95;;;6.47;;
78561;SDS011;68963;52.138;5.446;2023-10-13T14:42:07;18.45;;;5.68;;
78561;SDS011;68963;52.138;5.446;2023-10-13T14:44:34;16.88;;;5.95;;
78561;SDS011;68963;52.138;5.446;2023-10-13T14:47:01;18.75;;;5.95;;
78561;SDS011;68963;52.138;5.446;2023-10-13T14:49:28;14.95;;;5.53;;
78561;SDS011;68963;52.138;5.446;2023-10-13T14:51:55;16.15;;;5.97;;
78561;SDS011;68963;52.138;5.446;2023-10-13T14:54:21;16.33;;;6.38;;
78561;SDS011;68963;52.138;5.446;2023-10-13T14:56:59;15.93;;;5.40;;
78561;SDS011;68963;52.138;5.446;2023-10-13T14:59:27;15.10;;;5.45;;
78561;SDS011;68963;52.138;5.446;2023-10-13T15:01:59;18.17;;;5.60;;
78561;SDS011;68963;52.138;5.446;2023-10-13T15:04:28;16.65;;;5.85;;
78561;SDS011;68963;52.138;5.446;2023-10-13T15:07:00;16.13;;;5.82;;
78561;SDS011;68963;52.138;5.446;2023-10-13T15:09:30;16.75;;;5.82;;
78561;SDS011;68963;52.138;5.446;2023-10-13T15:11:56;15.60;;;5.60;;
78561;SDS011;68963;52.138;5.446;2023-10-13T15:14:23;15.35;;;5.90;;
78561;SDS011;68963;52.138;5.446;2023-10-13T15:16:50;18.30;;;5.82;;
78561;SDS011;68963;52.138;5.446;2023-10-13T15:19:19;18.05;;;5.82;;
78561;SDS011;68963;52.138;5.446;2023-10-13T15:21:45;16.50;;;5.72;;
78561;SDS011;68963;52.138;5.446;2023-10-13T15:24:19;16.80;;;5.65;;
78561;SDS011;68963;52.138;5.446;2023-10-13T15:26:54;14.40;;;5.30;;
78561;SDS011;68963;52.138;5.446;2023-10-13T15:29:29;16.00;;;5.97;;
78561;SDS011;68963;52.138;5.446;2023-10-13T15:32:04;16.98;;;6.28;;
78561;SDS011;68963;52.138;5.446;2023-10-13T15:34:52;18.00;;;6.88;;
78561;SDS011;68963;52.138;5.446;2023-10-13T15:37:19;16.30;;;6.38;;
78561;SDS011;68963;52.138;5.446;2023-10-13T15:39:46;18.05;;;5.68;;
78561;SDS011;68963;52.138;5.446;2023-10-13T15:42:13;17.98;;;6.70;;
78561;SDS011;68963;52.138;5.446;2023-10-13T15:44:40;17.05;;;7.53;;
78561;SDS011;68963;52.138;5.446;2023-10-13T15:47:09;28.77;;;8.13;;
78561;SDS011;68963;52.138;5.446;2023-10-13T15:49:41;16.10;;;6.50;;
78561;SDS011;68963;52.138;5.446;2023-10-13T15:54:36;19.20;;;7.13;;
78561;SDS011;68963;52.138;5.446;2023-10-13T15:57:02;16.23;;;6.72;;
78561;SDS011;68963;52.138;5.446;2023-10-13T15:59:33;19.15;;;6.47;;